Lyndhurst, NJ (07071)

4:41 PM EST on December 17, 2014 (GMT -0500)
North Arlington EMS | Change Station
CLOSE
Current Station
Personal Weather Station
Location: North Arlington, NJ
Elevation: 27 ft
Nearby Weather Stations

Elev 27 ft 40.79 °N, 74.12 °W | Updated 8 seconds ago

Overcast
Overcast
49.6 °F
Feels Like 50 °F
N
0.0
Wind Variable Wind from West
Gusts 0.0 mph

Today
High -- | Low -- °F
--% Chance of Precip.
Yesterday
High -- | Low -- °F
Precip. -- in
7:15 AM 4:30 PM
Waning Crescent, 19% visible
Pressure 29.83 in
Visibility 10.0 miles
Clouds Overcast 3700 ft
Windchill 50 °F
Dew Point 42 °F
Humidity 74%
Rainfall 0.02 in
Snow Depth Not available.
UV 0 out of 12
Pollen .10 out of 12
Air Quality Not available.
Flu Activity Not available.
METAR KTEB 172051Z 27014KT 10SM -RA OVC037 09/03 A2983 RMK AO2 RAB44 SLP100 P0000 60000 T00890033 53012

More Conditions Fewer Conditions

Pressure 29.83 in
Visibility 10.0 miles
Clouds Overcast 3700 ft
Windchill 50 °F
Dew Point 42 °F
Humidity 74%
Rainfall 0.02 in
Snow Depth Not available.
UV 0 out of 12
Pollen .10 out of 12
Air Quality Not available.
Flu Activity Not available.
METAR KTEB 172051Z 27014KT 10SM -RA OVC037 09/03 A2983 RMK AO2 RAB44 SLP100 P0000 60000 T00890033 53012

More Conditions Fewer Conditions

10-Day Weather Forecast

Almanac

Astronomy

Dec. 17, 2014 Rise Set
Actual Time
Civil Twilight
Nautical Twilight
Astronomical Twilight
Moon
Length of Visible Light
Length of Day
Tomorrow will be .
, % of the Moon is Illuminated

Today's Extremes

State Highs State Lows

Community

WunderPhotos

Upload Photos

1,778,807 photos uploaded!

WunderBlogs® & News

Nearby

Air Quality

  Air Quality AQ Index Pollutant
Not available.

Snow Depth

Station Depth Elevation

Earthquake Activity

City Distance Mag. Time & Date
Minimum magnitude displayed is 2.5.

Coastal Water Temperatures

Place Temperature

Nearby Weather Stations